sensor_id;sensor_type;location;lat;lon;timestamp;P1;durP1;ratioP1;P2;durP2;ratioP2
51907;SDS011;39320;53.214;6.556;2023-06-26T00:01:33;6.88;;;5.57;;
51907;SDS011;39320;53.214;6.556;2023-06-26T00:03:59;5.88;;;5.28;;
51907;SDS011;39320;53.214;6.556;2023-06-26T00:06:25;5.68;;;4.70;;
51907;SDS011;39320;53.214;6.556;2023-06-26T00:08:52;6.40;;;5.03;;
51907;SDS011;39320;53.214;6.556;2023-06-26T00:11:19;5.68;;;5.18;;
51907;SDS011;39320;53.214;6.556;2023-06-26T00:13:45;6.45;;;5.13;;
51907;SDS011;39320;53.214;6.556;2023-06-26T00:16:11;6.45;;;4.88;;
51907;SDS011;39320;53.214;6.556;2023-06-26T00:18:36;6.30;;;4.95;;
51907;SDS011;39320;53.214;6.556;2023-06-26T00:21:02;6.60;;;4.95;;
51907;SDS011;39320;53.214;6.556;2023-06-26T00:23:28;6.03;;;5.03;;
51907;SDS011;39320;53.214;6.556;2023-06-26T00:25:56;7.22;;;5.50;;
51907;SDS011;39320;53.214;6.556;2023-06-26T00:28:21;5.85;;;5.25;;
51907;SDS011;39320;53.214;6.556;2023-06-26T00:30:47;8.82;;;5.35;;
51907;SDS011;39320;53.214;6.556;2023-06-26T00:33:13;6.25;;;4.72;;
51907;SDS011;39320;53.214;6.556;2023-06-26T00:35:39;5.82;;;5.10;;
51907;SDS011;39320;53.214;6.556;2023-06-26T00:38:04;7.88;;;5.30;;
51907;SDS011;39320;53.214;6.556;2023-06-26T00:40:30;6.13;;;5.53;;
51907;SDS011;39320;53.214;6.556;2023-06-26T00:42:56;5.97;;;5.38;;
51907;SDS011;39320;53.214;6.556;2023-06-26T00:45:21;6.95;;;5.57;;
51907;SDS011;39320;53.214;6.556;2023-06-26T00:47:47;5.53;;;5.03;;
51907;SDS011;39320;53.214;6.556;2023-06-26T00:50:14;7.00;;;5.95;;
51907;SDS011;39320;53.214;6.556;2023-06-26T00:52:41;5.80;;;5.03;;
51907;SDS011;39320;53.214;6.556;2023-06-26T00:55:07;6.75;;;5.20;;
51907;SDS011;39320;53.214;6.556;2023-06-26T00:57:33;6.00;;;5.30;;
51907;SDS011;39320;53.214;6.556;2023-06-26T01:00:00;7.40;;;5.85;;
51907;SDS011;39320;53.214;6.556;2023-06-26T01:02:29;6.20;;;5.60;;
51907;SDS011;39320;53.214;6.556;2023-06-26T01:04:59;7.05;;;5.93;;
51907;SDS011;39320;53.214;6.556;2023-06-26T01:07:28;6.82;;;5.70;;
51907;SDS011;39320;53.214;6.556;2023-06-26T01:09:57;7.28;;;6.13;;
51907;SDS011;39320;53.214;6.556;2023-06-26T01:12:24;5.72;;;5.22;;
51907;SDS011;39320;53.214;6.556;2023-06-26T01:14:50;6.18;;;5.57;;
51907;SDS011;39320;53.214;6.556;2023-06-26T01:17:15;6.30;;;5.70;;
51907;SDS011;39320;53.214;6.556;2023-06-26T01:19:42;6.10;;;5.50;;
51907;SDS011;39320;53.214;6.556;2023-06-26T01:25:12;6.45;;;5.38;;
51907;SDS011;39320;53.214;6.556;2023-06-26T01:27:45;6.22;;;5.60;;
51907;SDS011;39320;53.214;6.556;2023-06-26T01:30:14;7.07;;;6.38;;
51907;SDS011;39320;53.214;6.556;2023-06-26T01:32:42;6.47;;;5.40;;
51907;SDS011;39320;53.214;6.556;2023-06-26T01:35:10;7.50;;;6.10;;
51907;SDS011;39320;53.214;6.556;2023-06-26T01:37:36;7.47;;;5.57;;
51907;SDS011;39320;53.214;6.556;2023-06-26T01:40:02;8.00;;;5.90;;
51907;SDS011;39320;53.214;6.556;2023-06-26T01:42:31;6.45;;;5.57;;
51907;SDS011;39320;53.214;6.556;2023-06-26T01:44:57;6.85;;;5.90;;
51907;SDS011;39320;53.214;6.556;2023-06-26T01:47:34;5.85;;;5.15;;
51907;SDS011;39320;53.214;6.556;2023-06-26T01:50:09;6.30;;;5.60;;
51907;SDS011;39320;53.214;6.556;2023-06-26T01:52:45;7.47;;;6.35;;
51907;SDS011;39320;53.214;6.556;2023-06-26T01:55:19;6.20;;;5.50;;
51907;SDS011;39320;53.214;6.556;2023-06-26T01:57:52;7.78;;;5.95;;
51907;SDS011;39320;53.214;6.556;2023-06-26T02:00:21;6.32;;;5.63;;
51907;SDS011;39320;53.214;6.556;2023-06-26T02:02:48;7.28;;;5.93;;
51907;SDS011;39320;53.214;6.556;2023-06-26T02:05:14;6.35;;;5.72;;
51907;SDS011;39320;53.214;6.556;2023-06-26T02:07:40;7.30;;;6.25;;
51907;SDS011;39320;53.214;6.556;2023-06-26T02:10:06;6.90;;;5.75;;
51907;SDS011;39320;53.214;6.556;2023-06-26T02:12:32;7.05;;;5.53;;
51907;SDS011;39320;53.214;6.556;2023-06-26T02:14:59;6.32;;;5.72;;
51907;SDS011;39320;53.214;6.556;2023-06-26T02:17:24;6.65;;;5.55;;
51907;SDS011;39320;53.214;6.556;2023-06-26T02:19:50;6.60;;;5.90;;
51907;SDS011;39320;53.214;6.556;2023-06-26T02:22:16;7.20;;;6.00;;
51907;SDS011;39320;53.214;6.556;2023-06-26T02:24:42;6.70;;;5.75;;
51907;SDS011;39320;53.214;6.556;2023-06-26T02:27:09;7.88;;;6.18;;
51907;SDS011;39320;53.214;6.556;2023-06-26T02:29:35;6.72;;;6.03;;
51907;SDS011;39320;53.214;6.556;2023-06-26T02:32:01;7.60;;;5.80;;
51907;SDS011;39320;53.214;6.556;2023-06-26T02:34:27;8.05;;;6.10;;
51907;SDS011;39320;53.214;6.556;2023-06-26T02:36:53;7.80;;;6.72;;
51907;SDS011;39320;53.214;6.556;2023-06-26T02:39:24;7.35;;;6.47;;
51907;SDS011;39320;53.214;6.556;2023-06-26T02:41:49;8.25;;;6.40;;
51907;SDS011;39320;53.214;6.556;2023-06-26T02:44:15;6.68;;;5.60;;
51907;SDS011;39320;53.214;6.556;2023-06-26T02:46:41;7.05;;;6.22;;
51907;SDS011;39320;53.214;6.556;2023-06-26T02:49:07;8.35;;;6.70;;
51907;SDS011;39320;53.214;6.556;2023-06-26T02:51:33;8.57;;;6.78;;
51907;SDS011;39320;53.214;6.556;2023-06-26T02:53:59;8.00;;;6.93;;
51907;SDS011;39320;53.214;6.556;2023-06-26T02:56:26;8.48;;;7.00;;
51907;SDS011;39320;53.214;6.556;2023-06-26T02:58:57;7.50;;;6.63;;
51907;SDS011;39320;53.214;6.556;2023-06-26T03:01:23;7.95;;;7.10;;
51907;SDS011;39320;53.214;6.556;2023-06-26T03:03:50;7.22;;;6.38;;
51907;SDS011;39320;53.214;6.556;2023-06-26T03:06:16;8.23;;;6.95;;
51907;SDS011;39320;53.214;6.556;2023-06-26T03:08:42;8.15;;;7.35;;
51907;SDS011;39320;53.214;6.556;2023-06-26T03:11:08;10.07;;;7.82;;
51907;SDS011;39320;53.214;6.556;2023-06-26T03:13:34;7.28;;;6.60;;
51907;SDS011;39320;53.214;6.556;2023-06-26T03:16:04;8.73;;;6.93;;
51907;SDS011;39320;53.214;6.556;2023-06-26T03:18:30;7.95;;;7.15;;
51907;SDS011;39320;53.214;6.556;2023-06-26T03:20:56;8.98;;;7.90;;
51907;SDS011;39320;53.214;6.556;2023-06-26T03:23:22;8.88;;;7.97;;
51907;SDS011;39320;53.214;6.556;2023-06-26T03:25:49;8.40;;;7.55;;
51907;SDS011;39320;53.214;6.556;2023-06-26T03:28:15;9.85;;;8.40;;
51907;SDS011;39320;53.214;6.556;2023-06-26T03:30:41;8.35;;;7.53;;
51907;SDS011;39320;53.214;6.556;2023-06-26T03:33:07;9.02;;;7.78;;
51907;SDS011;39320;53.214;6.556;2023-06-26T03:35:32;8.23;;;7.43;;
51907;SDS011;39320;53.214;6.556;2023-06-26T03:37:58;8.85;;;7.95;;
51907;SDS011;39320;53.214;6.556;2023-06-26T03:40:25;8.25;;;7.45;;
51907;SDS011;39320;53.214;6.556;2023-06-26T03:42:52;8.75;;;7.60;;
51907;SDS011;39320;53.214;6.556;2023-06-26T03:45:17;8.88;;;7.97;;
51907;SDS011;39320;53.214;6.556;2023-06-26T03:47:44;8.95;;;8.05;;
51907;SDS011;39320;53.214;6.556;2023-06-26T03:50:14;8.93;;;7.88;;
51907;SDS011;39320;53.214;6.556;2023-06-26T03:52:43;8.52;;;7.55;;
51907;SDS011;39320;53.214;6.556;2023-06-26T03:55:09;8.00;;;6.75;;
51907;SDS011;39320;53.214;6.556;2023-06-26T03:57:35;8.93;;;8.02;;
51907;SDS011;39320;53.214;6.556;2023-06-26T04:00:01;9.82;;;8.18;;
51907;SDS011;39320;53.214;6.556;2023-06-26T04:02:33;9.45;;;7.75;;
51907;SDS011;39320;53.214;6.556;2023-06-26T04:04:59;8.43;;;7.25;;
51907;SDS011;39320;53.214;6.556;2023-06-26T04:07:25;9.27;;;7.95;;
51907;SDS011;39320;53.214;6.556;2023-06-26T04:09:51;10.05;;;7.22;;
51907;SDS011;39320;53.214;6.556;2023-06-26T04:12:17;8.63;;;7.47;;
51907;SDS011;39320;53.214;6.556;2023-06-26T04:14:42;10.35;;;7.93;;
51907;SDS011;39320;53.214;6.556;2023-06-26T04:17:08;8.40;;;7.53;;
51907;SDS011;39320;53.214;6.556;2023-06-26T04:19:35;8.82;;;7.10;;
51907;SDS011;39320;53.214;6.556;2023-06-26T04:22:01;12.13;;;7.80;;
51907;SDS011;39320;53.214;6.556;2023-06-26T04:24:27;8.77;;;7.43;;
51907;SDS011;39320;53.214;6.556;2023-06-26T04:26:53;7.97;;;7.22;;
51907;SDS011;39320;53.214;6.556;2023-06-26T04:29:22;8.13;;;7.32;;
51907;SDS011;39320;53.214;6.556;2023-06-26T04:31:51;8.23;;;7.40;;
51907;SDS011;39320;53.214;6.556;2023-06-26T04:34:17;8.35;;;7.00;;
51907;SDS011;39320;53.214;6.556;2023-06-26T04:36:42;10.02;;;7.13;;
51907;SDS011;39320;53.214;6.556;2023-06-26T04:39:13;9.45;;;7.22;;
51907;SDS011;39320;53.214;6.556;2023-06-26T04:41:42;9.38;;;6.63;;
51907;SDS011;39320;53.214;6.556;2023-06-26T04:44:09;7.28;;;6.03;;
51907;SDS011;39320;53.214;6.556;2023-06-26T04:46:34;10.10;;;5.85;;
51907;SDS011;39320;53.214;6.556;2023-06-26T04:49:00;7.95;;;6.05;;
51907;SDS011;39320;53.214;6.556;2023-06-26T04:51:28;8.07;;;6.57;;
51907;SDS011;39320;53.214;6.556;2023-06-26T04:53:54;9.35;;;5.63;;
51907;SDS011;39320;53.214;6.556;2023-06-26T04:56:20;8.73;;;5.57;;
51907;SDS011;39320;53.214;6.556;2023-06-26T04:58:45;7.85;;;6.22;;
51907;SDS011;39320;53.214;6.556;2023-06-26T05:01:11;10.25;;;6.28;;
51907;SDS011;39320;53.214;6.556;2023-06-26T05:03:41;8.25;;;6.22;;
51907;SDS011;39320;53.214;6.556;2023-06-26T05:06:07;12.93;;;6.63;;
51907;SDS011;39320;53.214;6.556;2023-06-26T05:08:33;9.60;;;5.85;;
51907;SDS011;39320;53.214;6.556;2023-06-26T05:10:58;11.38;;;6.78;;
51907;SDS011;39320;53.214;6.556;2023-06-26T05:13:25;9.52;;;7.28;;
51907;SDS011;39320;53.214;6.556;2023-06-26T05:15:51;8.38;;;6.30;;
51907;SDS011;39320;53.214;6.556;2023-06-26T05:18:18;12.95;;;7.53;;
51907;SDS011;39320;53.214;6.556;2023-06-26T05:20:44;10.95;;;7.57;;
51907;SDS011;39320;53.214;6.556;2023-06-26T05:23:13;10.50;;;7.47;;
51907;SDS011;39320;53.214;6.556;2023-06-26T05:25:41;12.20;;;8.02;;
51907;SDS011;39320;53.214;6.556;2023-06-26T05:28:07;10.75;;;7.50;;
51907;SDS011;39320;53.214;6.556;2023-06-26T05:30:35;11.82;;;6.82;;
51907;SDS011;39320;53.214;6.556;2023-06-26T05:33:02;10.18;;;6.57;;
51907;SDS011;39320;53.214;6.556;2023-06-26T05:35:29;9.32;;;5.97;;
51907;SDS011;39320;53.214;6.556;2023-06-26T05:37:55;9.35;;;5.60;;
51907;SDS011;39320;53.214;6.556;2023-06-26T05:40:22;8.07;;;5.03;;
51907;SDS011;39320;53.214;6.556;2023-06-26T05:42:48;9.13;;;4.47;;
51907;SDS011;39320;53.214;6.556;2023-06-26T05:45:15;8.38;;;5.03;;
51907;SDS011;39320;53.214;6.556;2023-06-26T05:47:41;6.38;;;4.15;;
51907;SDS011;39320;53.214;6.556;2023-06-26T05:50:08;8.98;;;4.70;;
51907;SDS011;39320;53.214;6.556;2023-06-26T05:52:35;7.68;;;4.20;;
51907;SDS011;39320;53.214;6.556;2023-06-26T05:55:02;7.50;;;4.47;;
51907;SDS011;39320;53.214;6.556;2023-06-26T05:57:28;9.05;;;4.68;;
51907;SDS011;39320;53.214;6.556;2023-06-26T05:59:55;7.93;;;4.47;;
51907;SDS011;39320;53.214;6.556;2023-06-26T06:02:21;10.90;;;4.88;;
51907;SDS011;39320;53.214;6.556;2023-06-26T06:04:47;8.65;;;5.05;;
51907;SDS011;39320;53.214;6.556;2023-06-26T06:07:14;7.28;;;4.00;;
51907;SDS011;39320;53.214;6.556;2023-06-26T06:09:40;9.63;;;4.43;;
51907;SDS011;39320;53.214;6.556;2023-06-26T06:12:06;10.60;;;4.72;;
51907;SDS011;39320;53.214;6.556;2023-06-26T06:14:32;8.98;;;4.32;;
51907;SDS011;39320;53.214;6.556;2023-06-26T06:16:58;8.57;;;3.85;;
51907;SDS011;39320;53.214;6.556;2023-06-26T06:19:24;8.43;;;3.75;;
51907;SDS011;39320;53.214;6.556;2023-06-26T06:21:50;12.27;;;3.90;;
51907;SDS011;39320;53.214;6.556;2023-06-26T06:24:16;8.88;;;3.55;;
51907;SDS011;39320;53.214;6.556;2023-06-26T06:26:42;7.40;;;3.58;;
51907;SDS011;39320;53.214;6.556;2023-06-26T06:29:08;8.80;;;3.47;;
51907;SDS011;39320;53.214;6.556;2023-06-26T06:31:34;7.28;;;2.50;;
51907;SDS011;39320;53.214;6.556;2023-06-26T06:33:59;8.45;;;3.03;;
51907;SDS011;39320;53.214;6.556;2023-06-26T06:36:25;6.47;;;3.30;;
51907;SDS011;39320;53.214;6.556;2023-06-26T06:38:51;7.55;;;2.65;;
51907;SDS011;39320;53.214;6.556;2023-06-26T06:41:17;8.23;;;2.85;;
51907;SDS011;39320;53.214;6.556;2023-06-26T06:43:43;8.27;;;2.63;;
51907;SDS011;39320;53.214;6.556;2023-06-26T06:46:08;6.78;;;2.63;;
51907;SDS011;39320;53.214;6.556;2023-06-26T06:48:34;4.80;;;2.83;;
51907;SDS011;39320;53.214;6.556;2023-06-26T06:51:00;6.38;;;2.85;;
51907;SDS011;39320;53.214;6.556;2023-06-26T06:53:26;4.68;;;2.72;;
51907;SDS011;39320;53.214;6.556;2023-06-26T06:55:52;5.82;;;2.42;;
51907;SDS011;39320;53.214;6.556;2023-06-26T06:58:18;8.57;;;2.05;;
51907;SDS011;39320;53.214;6.556;2023-06-26T07:00:47;6.88;;;2.33;;
51907;SDS011;39320;53.214;6.556;2023-06-26T07:03:13;6.10;;;2.00;;
51907;SDS011;39320;53.214;6.556;2023-06-26T07:05:41;9.43;;;2.25;;
51907;SDS011;39320;53.214;6.556;2023-06-26T07:08:07;4.68;;;2.42;;
51907;SDS011;39320;53.214;6.556;2023-06-26T07:10:33;4.55;;;2.08;;
51907;SDS011;39320;53.214;6.556;2023-06-26T07:12:59;5.63;;;1.88;;
51907;SDS011;39320;53.214;6.556;2023-06-26T07:15:25;2.25;;;1.40;;
51907;SDS011;39320;53.214;6.556;2023-06-26T07:17:52;6.75;;;1.70;;
51907;SDS011;39320;53.214;6.556;2023-06-26T07:20:17;4.28;;;1.70;;
51907;SDS011;39320;53.214;6.556;2023-06-26T07:22:43;7.80;;;2.00;;
51907;SDS011;39320;53.214;6.556;2023-06-26T07:25:10;4.18;;;1.60;;
51907;SDS011;39320;53.214;6.556;2023-06-26T07:27:40;4.60;;;1.50;;
51907;SDS011;39320;53.214;6.556;2023-06-26T07:30:06;6.05;;;1.63;;
51907;SDS011;39320;53.214;6.556;2023-06-26T07:32:34;5.40;;;1.60;;
51907;SDS011;39320;53.214;6.556;2023-06-26T07:35:00;3.92;;;1.70;;
51907;SDS011;39320;53.214;6.556;2023-06-26T07:37:26;6.15;;;1.58;;
51907;SDS011;39320;53.214;6.556;2023-06-26T07:39:52;3.33;;;1.48;;
51907;SDS011;39320;53.214;6.556;2023-06-26T07:42:17;5.13;;;1.67;;
51907;SDS011;39320;53.214;6.556;2023-06-26T07:44:43;5.18;;;1.73;;
51907;SDS011;39320;53.214;6.556;2023-06-26T07:47:09;5.03;;;1.60;;
51907;SDS011;39320;53.214;6.556;2023-06-26T07:49:35;4.55;;;1.10;;
51907;SDS011;39320;53.214;6.556;2023-06-26T07:52:01;4.90;;;1.40;;
51907;SDS011;39320;53.214;6.556;2023-06-26T07:54:28;2.75;;;1.35;;
51907;SDS011;39320;53.214;6.556;2023-06-26T07:57:04;4.85;;;1.33;;
51907;SDS011;39320;53.214;6.556;2023-06-26T07:59:33;2.65;;;0.90;;
51907;SDS011;39320;53.214;6.556;2023-06-26T08:01:59;3.95;;;1.80;;
51907;SDS011;39320;53.214;6.556;2023-06-26T08:04:27;5.15;;;1.45;;
51907;SDS011;39320;53.214;6.556;2023-06-26T08:06:57;3.45;;;1.27;;
51907;SDS011;39320;53.214;6.556;2023-06-26T08:09:26;2.83;;;1.20;;
51907;SDS011;39320;53.214;6.556;2023-06-26T08:11:53;4.20;;;1.42;;
51907;SDS011;39320;53.214;6.556;2023-06-26T08:14:19;5.68;;;1.35;;
51907;SDS011;39320;53.214;6.556;2023-06-26T08:16:46;2.60;;;1.08;;
51907;SDS011;39320;53.214;6.556;2023-06-26T08:19:12;3.38;;;1.38;;
51907;SDS011;39320;53.214;6.556;2023-06-26T08:21:42;4.00;;;1.73;;
51907;SDS011;39320;53.214;6.556;2023-06-26T08:24:09;3.28;;;1.30;;
51907;SDS011;39320;53.214;6.556;2023-06-26T08:26:35;3.80;;;1.48;;
51907;SDS011;39320;53.214;6.556;2023-06-26T08:29:01;5.72;;;1.48;;
51907;SDS011;39320;53.214;6.556;2023-06-26T08:31:33;4.70;;;1.45;;
51907;SDS011;39320;53.214;6.556;2023-06-26T08:33:59;3.30;;;1.50;;
51907;SDS011;39320;53.214;6.556;2023-06-26T08:36:28;6.90;;;1.50;;
51907;SDS011;39320;53.214;6.556;2023-06-26T08:38:54;3.75;;;1.30;;
51907;SDS011;39320;53.214;6.556;2023-06-26T08:41:20;3.67;;;1.50;;
51907;SDS011;39320;53.214;6.556;2023-06-26T08:43:46;3.13;;;1.33;;
51907;SDS011;39320;53.214;6.556;2023-06-26T08:46:13;3.33;;;1.60;;
51907;SDS011;39320;53.214;6.556;2023-06-26T08:48:40;2.28;;;1.67;;
51907;SDS011;39320;53.214;6.556;2023-06-26T08:51:09;3.75;;;1.42;;
51907;SDS011;39320;53.214;6.556;2023-06-26T08:56:23;3.88;;;1.73;;
51907;SDS011;39320;53.214;6.556;2023-06-26T08:58:52;4.43;;;1.40;;
51907;SDS011;39320;53.214;6.556;2023-06-26T09:01:18;2.70;;;1.30;;
51907;SDS011;39320;53.214;6.556;2023-06-26T09:03:45;4.95;;;1.50;;
51907;SDS011;39320;53.214;6.556;2023-06-26T09:06:11;3.03;;;1.45;;
51907;SDS011;39320;53.214;6.556;2023-06-26T09:08:37;3.15;;;1.25;;
51907;SDS011;39320;53.214;6.556;2023-06-26T09:11:03;2.75;;;1.50;;
51907;SDS011;39320;53.214;6.556;2023-06-26T09:13:30;4.30;;;1.60;;
51907;SDS011;39320;53.214;6.556;2023-06-26T09:15:55;3.10;;;1.33;;
51907;SDS011;39320;53.214;6.556;2023-06-26T09:18:21;5.18;;;1.40;;
51907;SDS011;39320;53.214;6.556;2023-06-26T09:20:48;4.15;;;1.27;;
51907;SDS011;39320;53.214;6.556;2023-06-26T09:23:15;4.32;;;1.50;;
51907;SDS011;39320;53.214;6.556;2023-06-26T09:25:41;2.03;;;1.20;;
51907;SDS011;39320;53.214;6.556;2023-06-26T09:28:08;3.45;;;1.48;;
51907;SDS011;39320;53.214;6.556;2023-06-26T09:30:35;4.43;;;1.73;;
51907;SDS011;39320;53.214;6.556;2023-06-26T09:33:16;3.88;;;1.55;;
51907;SDS011;39320;53.214;6.556;2023-06-26T09:35:46;3.00;;;1.40;;
51907;SDS011;39320;53.214;6.556;2023-06-26T09:38:13;4.47;;;1.58;;
51907;SDS011;39320;53.214;6.556;2023-06-26T09:40:40;3.33;;;1.60;;
51907;SDS011;39320;53.214;6.556;2023-06-26T09:43:06;2.42;;;1.25;;
51907;SDS011;39320;53.214;6.556;2023-06-26T09:45:33;4.45;;;1.52;;
51907;SDS011;39320;53.214;6.556;2023-06-26T09:48:04;3.72;;;1.80;;
51907;SDS011;39320;53.214;6.556;2023-06-26T09:50:33;4.25;;;1.70;;
51907;SDS011;39320;53.214;6.556;2023-06-26T09:53:12;3.58;;;1.70;;
51907;SDS011;39320;53.214;6.556;2023-06-26T09:55:39;4.35;;;2.17;;
51907;SDS011;39320;53.214;6.556;2023-06-26T09:58:10;3.05;;;2.00;;
51907;SDS011;39320;53.214;6.556;2023-06-26T10:00:40;3.28;;;1.75;;
51907;SDS011;39320;53.214;6.556;2023-06-26T10:03:06;3.33;;;1.63;;
51907;SDS011;39320;53.214;6.556;2023-06-26T10:05:32;3.42;;;1.88;;
51907;SDS011;39320;53.214;6.556;2023-06-26T10:07:58;4.15;;;1.67;;
51907;SDS011;39320;53.214;6.556;2023-06-26T10:10:24;5.20;;;2.03;;
51907;SDS011;39320;53.214;6.556;2023-06-26T10:12:52;3.05;;;1.88;;
51907;SDS011;39320;53.214;6.556;2023-06-26T10:15:24;2.35;;;1.58;;
51907;SDS011;39320;53.214;6.556;2023-06-26T10:17:52;5.15;;;2.05;;
51907;SDS011;39320;53.214;6.556;2023-06-26T10:20:21;4.13;;;1.77;;
51907;SDS011;39320;53.214;6.556;2023-06-26T10:22:47;4.82;;;1.90;;
51907;SDS011;39320;53.214;6.556;2023-06-26T10:25:16;3.10;;;1.88;;
51907;SDS011;39320;53.214;6.556;2023-06-26T10:27:45;3.03;;;1.80;;
51907;SDS011;39320;53.214;6.556;2023-06-26T10:30:18;3.50;;;2.10;;
51907;SDS011;39320;53.214;6.556;2023-06-26T10:32:47;3.67;;;1.80;;
51907;SDS011;39320;53.214;6.556;2023-06-26T10:35:13;3.95;;;1.80;;
51907;SDS011;39320;53.214;6.556;2023-06-26T10:37:49;3.45;;;2.13;;
51907;SDS011;39320;53.214;6.556;2023-06-26T10:40:25;4.70;;;2.40;;
51907;SDS011;39320;53.214;6.556;2023-06-26T10:42:55;4.63;;;1.90;;
51907;SDS011;39320;53.214;6.556;2023-06-26T10:45:33;4.20;;;1.80;;
51907;SDS011;39320;53.214;6.556;2023-06-26T10:47:59;4.90;;;2.03;;
51907;SDS011;39320;53.214;6.556;2023-06-26T10:50:27;3.80;;;2.03;;
51907;SDS011;39320;53.214;6.556;2023-06-26T10:55:37;5.53;;;2.40;;
51907;SDS011;39320;53.214;6.556;2023-06-26T10:58:26;9.55;;;2.58;;
51907;SDS011;39320;53.214;6.556;2023-06-26T11:03:36;5.65;;;2.13;;
51907;SDS011;39320;53.214;6.556;2023-06-26T11:06:08;3.55;;;2.13;;
51907;SDS011;39320;53.214;6.556;2023-06-26T11:08:44;3.58;;;1.52;;
51907;SDS011;39320;53.214;6.556;2023-06-26T11:11:12;5.75;;;1.95;;
51907;SDS011;39320;53.214;6.556;2023-06-26T11:13:39;3.08;;;1.80;;
51907;SDS011;39320;53.214;6.556;2023-06-26T11:16:05;5.32;;;1.60;;
51907;SDS011;39320;53.214;6.556;2023-06-26T11:18:31;3.05;;;1.38;;
51907;SDS011;39320;53.214;6.556;2023-06-26T11:23:49;4.95;;;1.60;;
51907;SDS011;39320;53.214;6.556;2023-06-26T11:26:20;4.45;;;1.38;;
51907;SDS011;39320;53.214;6.556;2023-06-26T11:28:49;4.53;;;1.48;;
51907;SDS011;39320;53.214;6.556;2023-06-26T11:34:12;2.42;;;1.20;;
51907;SDS011;39320;53.214;6.556;2023-06-26T11:36:39;2.58;;;1.10;;
51907;SDS011;39320;53.214;6.556;2023-06-26T11:39:07;3.63;;;1.42;;
51907;SDS011;39320;53.214;6.556;2023-06-26T11:41:34;3.97;;;1.35;;
51907;SDS011;39320;53.214;6.556;2023-06-26T11:44:04;3.70;;;1.60;;
51907;SDS011;39320;53.214;6.556;2023-06-26T11:46:31;4.45;;;1.10;;
51907;SDS011;39320;53.214;6.556;2023-06-26T11:48:59;9.63;;;3.22;;
51907;SDS011;39320;53.214;6.556;2023-06-26T11:51:28;8.73;;;2.47;;
51907;SDS011;39320;53.214;6.556;2023-06-26T11:53:54;7.28;;;2.00;;
51907;SDS011;39320;53.214;6.556;2023-06-26T11:56:20;5.85;;;1.13;;
51907;SDS011;39320;53.214;6.556;2023-06-26T12:01:42;12.18;;;3.47;;
51907;SDS011;39320;53.214;6.556;2023-06-26T12:04:12;5.15;;;1.40;;
51907;SDS011;39320;53.214;6.556;2023-06-26T12:06:51;4.90;;;1.20;;
51907;SDS011;39320;53.214;6.556;2023-06-26T12:09:22;3.28;;;1.15;;
51907;SDS011;39320;53.214;6.556;2023-06-26T12:11:51;3.97;;;1.38;;
51907;SDS011;39320;53.214;6.556;2023-06-26T12:14:19;5.13;;;1.40;;
51907;SDS011;39320;53.214;6.556;2023-06-26T12:16:46;4.47;;;1.30;;
51907;SDS011;39320;53.214;6.556;2023-06-26T12:19:12;3.38;;;1.23;;
51907;SDS011;39320;53.214;6.556;2023-06-26T12:24:15;3.22;;;1.52;;
51907;SDS011;39320;53.214;6.556;2023-06-26T12:26:46;4.30;;;1.27;;
51907;SDS011;39320;53.214;6.556;2023-06-26T12:29:19;3.17;;;1.30;;
51907;SDS011;39320;53.214;6.556;2023-06-26T12:31:48;5.25;;;1.42;;
51907;SDS011;39320;53.214;6.556;2023-06-26T12:34:17;3.63;;;1.35;;
51907;SDS011;39320;53.214;6.556;2023-06-26T12:36:50;4.18;;;1.23;;
51907;SDS011;39320;53.214;6.556;2023-06-26T12:39:17;3.42;;;1.15;;
51907;SDS011;39320;53.214;6.556;2023-06-26T12:41:53;4.47;;;1.38;;
51907;SDS011;39320;53.214;6.556;2023-06-26T12:44:21;3.95;;;1.13;;
51907;SDS011;39320;53.214;6.556;2023-06-26T12:46:54;3.20;;;1.23;;
51907;SDS011;39320;53.214;6.556;2023-06-26T12:49:32;2.75;;;1.20;;
51907;SDS011;39320;53.214;6.556;2023-06-26T12:52:00;5.25;;;1.35;;
51907;SDS011;39320;53.214;6.556;2023-06-26T12:54:27;4.57;;;1.30;;
51907;SDS011;39320;53.214;6.556;2023-06-26T12:56:53;4.63;;;1.20;;
51907;SDS011;39320;53.214;6.556;2023-06-26T12:59:20;4.38;;;1.20;;
51907;SDS011;39320;53.214;6.556;2023-06-26T13:01:46;4.07;;;1.20;;
51907;SDS011;39320;53.214;6.556;2023-06-26T13:04:11;3.20;;;1.20;;
51907;SDS011;39320;53.214;6.556;2023-06-26T13:06:37;5.38;;;1.70;;
51907;SDS011;39320;53.214;6.556;2023-06-26T13:09:03;4.03;;;1.20;;
51907;SDS011;39320;53.214;6.556;2023-06-26T13:11:29;4.35;;;1.42;;
51907;SDS011;39320;53.214;6.556;2023-06-26T13:13:56;2.58;;;1.10;;
51907;SDS011;39320;53.214;6.556;2023-06-26T13:16:22;4.45;;;1.00;;
51907;SDS011;39320;53.214;6.556;2023-06-26T13:18:48;3.65;;;1.23;;
51907;SDS011;39320;53.214;6.556;2023-06-26T13:21:14;4.15;;;1.20;;
51907;SDS011;39320;53.214;6.556;2023-06-26T13:23:40;2.28;;;1.00;;
51907;SDS011;39320;53.214;6.556;2023-06-26T13:26:07;2.25;;;0.80;;
51907;SDS011;39320;53.214;6.556;2023-06-26T13:28:33;3.08;;;0.95;;
51907;SDS011;39320;53.214;6.556;2023-06-26T13:30:59;1.98;;;0.90;;
51907;SDS011;39320;53.214;6.556;2023-06-26T13:33:25;4.53;;;1.33;;
51907;SDS011;39320;53.214;6.556;2023-06-26T13:35:51;3.45;;;1.30;;
51907;SDS011;39320;53.214;6.556;2023-06-26T13:38:20;2.80;;;0.98;;
51907;SDS011;39320;53.214;6.556;2023-06-26T13:40:53;3.08;;;0.90;;
51907;SDS011;39320;53.214;6.556;2023-06-26T13:43:20;3.45;;;0.90;;
51907;SDS011;39320;53.214;6.556;2023-06-26T13:45:46;5.03;;;1.00;;
51907;SDS011;39320;53.214;6.556;2023-06-26T13:48:13;3.15;;;1.00;;
51907;SDS011;39320;53.214;6.556;2023-06-26T13:50:39;4.28;;;1.00;;
51907;SDS011;39320;53.214;6.556;2023-06-26T13:53:05;3.45;;;1.48;;
51907;SDS011;39320;53.214;6.556;2023-06-26T13:55:31;3.00;;;1.33;;
51907;SDS011;39320;53.214;6.556;2023-06-26T13:57:58;2.92;;;1.40;;
51907;SDS011;39320;53.214;6.556;2023-06-26T14:00:24;5.30;;;2.03;;
51907;SDS011;39320;53.214;6.556;2023-06-26T14:02:50;3.85;;;1.33;;
51907;SDS011;39320;53.214;6.556;2023-06-26T14:05:16;3.00;;;1.35;;
51907;SDS011;39320;53.214;6.556;2023-06-26T14:07:46;6.30;;;1.27;;
51907;SDS011;39320;53.214;6.556;2023-06-26T14:10:12;3.40;;;1.75;;
51907;SDS011;39320;53.214;6.556;2023-06-26T14:12:39;3.47;;;1.42;;
51907;SDS011;39320;53.214;6.556;2023-06-26T14:15:05;3.78;;;1.83;;
51907;SDS011;39320;53.214;6.556;2023-06-26T14:17:31;5.90;;;1.58;;
51907;SDS011;39320;53.214;6.556;2023-06-26T14:19:57;5.15;;;1.77;;
51907;SDS011;39320;53.214;6.556;2023-06-26T14:22:24;5.93;;;1.92;;
51907;SDS011;39320;53.214;6.556;2023-06-26T14:24:50;4.88;;;1.50;;
51907;SDS011;39320;53.214;6.556;2023-06-26T14:27:16;3.90;;;1.70;;
51907;SDS011;39320;53.214;6.556;2023-06-26T14:29:42;4.57;;;1.35;;
51907;SDS011;39320;53.214;6.556;2023-06-26T14:32:07;3.53;;;1.42;;
51907;SDS011;39320;53.214;6.556;2023-06-26T14:34:33;2.72;;;1.38;;
51907;SDS011;39320;53.214;6.556;2023-06-26T14:36:59;4.60;;;1.42;;
51907;SDS011;39320;53.214;6.556;2023-06-26T14:39:25;4.15;;;1.80;;
51907;SDS011;39320;53.214;6.556;2023-06-26T14:41:51;3.38;;;1.48;;
51907;SDS011;39320;53.214;6.556;2023-06-26T14:44:16;5.10;;;1.73;;
51907;SDS011;39320;53.214;6.556;2023-06-26T14:46:42;3.70;;;1.33;;
51907;SDS011;39320;53.214;6.556;2023-06-26T14:49:08;3.08;;;1.50;;
51907;SDS011;39320;53.214;6.556;2023-06-26T14:51:34;3.83;;;1.60;;
51907;SDS011;39320;53.214;6.556;2023-06-26T14:54:00;4.93;;;1.75;;
51907;SDS011;39320;53.214;6.556;2023-06-26T14:56:26;2.97;;;1.38;;
51907;SDS011;39320;53.214;6.556;2023-06-26T14:58:52;5.43;;;2.15;;
51907;SDS011;39320;53.214;6.556;2023-06-26T15:01:18;3.72;;;1.38;;
51907;SDS011;39320;53.214;6.556;2023-06-26T15:03:47;2.50;;;1.50;;
51907;SDS011;39320;53.214;6.556;2023-06-26T15:06:13;2.92;;;1.13;;
51907;SDS011;39320;53.214;6.556;2023-06-26T15:08:40;5.60;;;1.65;;
51907;SDS011;39320;53.214;6.556;2023-06-26T15:11:06;3.63;;;1.20;;